sensor_id;sensor_type;location;lat;lon;timestamp;P1;durP1;ratioP1;P2;durP2;ratioP2
55003;SDS011;40900;52.710;6.438;2023-03-01T00:01:29;18.35;;;12.80;;
55003;SDS011;40900;52.710;6.438;2023-03-01T00:03:56;18.95;;;13.23;;
55003;SDS011;40900;52.710;6.438;2023-03-01T00:06:23;17.00;;;13.18;;
55003;SDS011;40900;52.710;6.438;2023-03-01T00:08:49;18.35;;;14.02;;
55003;SDS011;40900;52.710;6.438;2023-03-01T00:11:17;19.38;;;14.45;;
55003;SDS011;40900;52.710;6.438;2023-03-01T00:13:51;18.05;;;14.65;;
55003;SDS011;40900;52.710;6.438;2023-03-01T00:16:29;23.02;;;14.85;;
55003;SDS011;40900;52.710;6.438;2023-03-01T00:19:00;20.15;;;14.60;;
55003;SDS011;40900;52.710;6.438;2023-03-01T00:21:26;19.00;;;14.50;;
55003;SDS011;40900;52.710;6.438;2023-03-01T00:23:52;19.35;;;14.55;;
55003;SDS011;40900;52.710;6.438;2023-03-01T00:26:18;19.05;;;15.13;;
55003;SDS011;40900;52.710;6.438;2023-03-01T00:28:46;18.90;;;14.00;;
55003;SDS011;40900;52.710;6.438;2023-03-01T00:31:13;20.90;;;13.63;;
55003;SDS011;40900;52.710;6.438;2023-03-01T00:33:43;18.48;;;14.43;;
55003;SDS011;40900;52.710;6.438;2023-03-01T00:36:10;16.67;;;13.52;;
55003;SDS011;40900;52.710;6.438;2023-03-01T00:38:37;18.20;;;13.98;;
55003;SDS011;40900;52.710;6.438;2023-03-01T00:41:08;19.35;;;14.68;;
55003;SDS011;40900;52.710;6.438;2023-03-01T00:43:35;18.98;;;14.32;;
55003;SDS011;40900;52.710;6.438;2023-03-01T00:46:02;23.35;;;15.10;;
55003;SDS011;40900;52.710;6.438;2023-03-01T00:48:33;21.88;;;15.32;;
55003;SDS011;40900;52.710;6.438;2023-03-01T00:51:13;19.98;;;15.32;;
55003;SDS011;40900;52.710;6.438;2023-03-01T00:53:44;19.87;;;15.77;;
55003;SDS011;40900;52.710;6.438;2023-03-01T00:56:11;21.10;;;16.48;;
55003;SDS011;40900;52.710;6.438;2023-03-01T00:58:37;21.10;;;15.60;;
55003;SDS011;40900;52.710;6.438;2023-03-01T01:01:08;21.98;;;16.92;;
55003;SDS011;40900;52.710;6.438;2023-03-01T01:03:43;23.08;;;16.60;;
55003;SDS011;40900;52.710;6.438;2023-03-01T01:06:13;25.73;;;17.65;;
55003;SDS011;40900;52.710;6.438;2023-03-01T01:08:40;25.08;;;18.42;;
55003;SDS011;40900;52.710;6.438;2023-03-01T01:11:08;27.67;;;17.45;;
55003;SDS011;40900;52.710;6.438;2023-03-01T01:13:35;25.13;;;18.30;;
55003;SDS011;40900;52.710;6.438;2023-03-01T01:16:01;21.38;;;17.30;;
55003;SDS011;40900;52.710;6.438;2023-03-01T01:18:27;23.85;;;18.95;;
55003;SDS011;40900;52.710;6.438;2023-03-01T01:20:53;22.27;;;16.55;;
55003;SDS011;40900;52.710;6.438;2023-03-01T01:23:18;22.90;;;16.25;;
55003;SDS011;40900;52.710;6.438;2023-03-01T01:25:44;20.75;;;15.68;;
55003;SDS011;40900;52.710;6.438;2023-03-01T01:28:10;21.02;;;16.10;;
55003;SDS011;40900;52.710;6.438;2023-03-01T01:30:36;22.95;;;16.23;;
55003;SDS011;40900;52.710;6.438;2023-03-01T01:33:02;21.98;;;16.55;;
55003;SDS011;40900;52.710;6.438;2023-03-01T01:35:28;21.98;;;16.85;;
55003;SDS011;40900;52.710;6.438;2023-03-01T01:37:53;22.08;;;15.85;;
55003;SDS011;40900;52.710;6.438;2023-03-01T01:40:19;20.70;;;16.02;;
55003;SDS011;40900;52.710;6.438;2023-03-01T01:42:45;23.15;;;16.75;;
55003;SDS011;40900;52.710;6.438;2023-03-01T01:48:10;21.05;;;17.67;;
55003;SDS011;40900;52.710;6.438;2023-03-01T01:50:39;25.45;;;16.55;;
55003;SDS011;40900;52.710;6.438;2023-03-01T01:53:09;19.75;;;16.05;;
55003;SDS011;40900;52.710;6.438;2023-03-01T01:55:41;24.63;;;16.65;;
55003;SDS011;40900;52.710;6.438;2023-03-01T01:58:10;23.30;;;17.65;;
55003;SDS011;40900;52.710;6.438;2023-03-01T02:00:39;28.85;;;19.00;;
55003;SDS011;40900;52.710;6.438;2023-03-01T02:03:08;26.10;;;18.33;;
55003;SDS011;40900;52.710;6.438;2023-03-01T02:08:25;27.45;;;20.38;;
55003;SDS011;40900;52.710;6.438;2023-03-01T02:10:53;31.15;;;20.48;;
55003;SDS011;40900;52.710;6.438;2023-03-01T02:13:21;29.70;;;21.52;;
55003;SDS011;40900;52.710;6.438;2023-03-01T02:15:46;32.63;;;23.88;;
55003;SDS011;40900;52.710;6.438;2023-03-01T02:18:13;44.22;;;28.00;;
55003;SDS011;40900;52.710;6.438;2023-03-01T02:23:20;49.83;;;28.77;;
55003;SDS011;40900;52.710;6.438;2023-03-01T02:25:47;52.47;;;30.70;;
55003;SDS011;40900;52.710;6.438;2023-03-01T02:28:42;67.15;;;29.23;;
55003;SDS011;40900;52.710;6.438;2023-03-01T02:31:10;64.70;;;29.55;;
55003;SDS011;40900;52.710;6.438;2023-03-01T02:33:59;128.85;;;30.83;;
55003;SDS011;40900;52.710;6.438;2023-03-01T02:36:30;52.25;;;27.15;;
55003;SDS011;40900;52.710;6.438;2023-03-01T02:39:02;79.32;;;29.55;;
55003;SDS011;40900;52.710;6.438;2023-03-01T02:41:31;128.30;;;30.55;;
55003;SDS011;40900;52.710;6.438;2023-03-01T02:44:01;90.03;;;28.58;;
55003;SDS011;40900;52.710;6.438;2023-03-01T02:46:28;104.40;;;30.45;;
55003;SDS011;40900;52.710;6.438;2023-03-01T02:48:57;149.60;;;29.67;;
55003;SDS011;40900;52.710;6.438;2023-03-01T02:51:31;143.93;;;28.77;;
55003;SDS011;40900;52.710;6.438;2023-03-01T02:56:48;81.35;;;27.85;;
55003;SDS011;40900;52.710;6.438;2023-03-01T02:59:19;88.53;;;30.25;;
55003;SDS011;40900;52.710;6.438;2023-03-01T03:01:47;41.40;;;28.42;;
55003;SDS011;40900;52.710;6.438;2023-03-01T03:04:14;38.47;;;27.30;;
55003;SDS011;40900;52.710;6.438;2023-03-01T03:06:43;38.38;;;27.58;;
55003;SDS011;40900;52.710;6.438;2023-03-01T03:09:10;37.00;;;27.80;;
55003;SDS011;40900;52.710;6.438;2023-03-01T03:11:36;38.30;;;25.98;;
55003;SDS011;40900;52.710;6.438;2023-03-01T03:14:04;34.78;;;26.38;;
55003;SDS011;40900;52.710;6.438;2023-03-01T03:16:30;35.17;;;26.33;;
55003;SDS011;40900;52.710;6.438;2023-03-01T03:18:55;42.72;;;27.23;;
55003;SDS011;40900;52.710;6.438;2023-03-01T03:21:30;108.43;;;29.35;;
55003;SDS011;40900;52.710;6.438;2023-03-01T03:23:58;345.65;;;34.65;;
55003;SDS011;40900;52.710;6.438;2023-03-01T03:26:24;406.60;;;33.90;;
55003;SDS011;40900;52.710;6.438;2023-03-01T03:28:50;284.00;;;32.15;;
55003;SDS011;40900;52.710;6.438;2023-03-01T03:31:16;412.05;;;33.72;;
55003;SDS011;40900;52.710;6.438;2023-03-01T03:33:42;369.73;;;33.25;;
55003;SDS011;40900;52.710;6.438;2023-03-01T03:36:08;459.30;;;35.63;;
55003;SDS011;40900;52.710;6.438;2023-03-01T03:38:38;284.10;;;32.30;;
55003;SDS011;40900;52.710;6.438;2023-03-01T03:41:06;357.60;;;32.15;;
55003;SDS011;40900;52.710;6.438;2023-03-01T03:43:34;229.32;;;31.42;;
55003;SDS011;40900;52.710;6.438;2023-03-01T03:46:01;243.05;;;29.95;;
55003;SDS011;40900;52.710;6.438;2023-03-01T03:48:34;125.45;;;28.45;;
55003;SDS011;40900;52.710;6.438;2023-03-01T03:51:02;193.80;;;31.55;;
55003;SDS011;40900;52.710;6.438;2023-03-01T03:53:31;151.85;;;31.33;;
55003;SDS011;40900;52.710;6.438;2023-03-01T03:55:57;98.28;;;28.75;;
55003;SDS011;40900;52.710;6.438;2023-03-01T03:58:24;92.95;;;29.17;;
55003;SDS011;40900;52.710;6.438;2023-03-01T04:00:52;147.68;;;31.25;;
55003;SDS011;40900;52.710;6.438;2023-03-01T04:03:21;94.25;;;28.30;;
55003;SDS011;40900;52.710;6.438;2023-03-01T04:05:48;63.97;;;26.33;;
55003;SDS011;40900;52.710;6.438;2023-03-01T04:08:15;56.22;;;25.23;;
55003;SDS011;40900;52.710;6.438;2023-03-01T04:10:45;59.30;;;25.02;;
55003;SDS011;40900;52.710;6.438;2023-03-01T04:13:14;66.70;;;24.00;;
55003;SDS011;40900;52.710;6.438;2023-03-01T04:15:48;62.67;;;23.52;;
55003;SDS011;40900;52.710;6.438;2023-03-01T04:18:16;43.83;;;20.20;;
55003;SDS011;40900;52.710;6.438;2023-03-01T04:20:43;19.75;;;17.65;;
55003;SDS011;40900;52.710;6.438;2023-03-01T04:23:13;18.50;;;16.52;;
55003;SDS011;40900;52.710;6.438;2023-03-01T04:28:20;15.63;;;14.00;;
55003;SDS011;40900;52.710;6.438;2023-03-01T04:30:54;17.00;;;15.20;;
55003;SDS011;40900;52.710;6.438;2023-03-01T04:33:22;19.48;;;16.58;;
55003;SDS011;40900;52.710;6.438;2023-03-01T04:35:48;21.02;;;18.25;;
55003;SDS011;40900;52.710;6.438;2023-03-01T04:38:14;20.40;;;17.35;;
55003;SDS011;40900;52.710;6.438;2023-03-01T04:40:44;21.48;;;17.35;;
55003;SDS011;40900;52.710;6.438;2023-03-01T04:43:10;19.83;;;17.50;;
55003;SDS011;40900;52.710;6.438;2023-03-01T04:45:38;21.70;;;16.90;;
55003;SDS011;40900;52.710;6.438;2023-03-01T04:48:04;21.38;;;18.58;;
55003;SDS011;40900;52.710;6.438;2023-03-01T04:50:30;22.98;;;18.65;;
55003;SDS011;40900;52.710;6.438;2023-03-01T04:52:56;25.60;;;20.05;;
55003;SDS011;40900;52.710;6.438;2023-03-01T04:55:25;23.30;;;18.85;;
55003;SDS011;40900;52.710;6.438;2023-03-01T04:57:52;24.40;;;19.85;;
55003;SDS011;40900;52.710;6.438;2023-03-01T05:00:19;25.73;;;20.15;;
55003;SDS011;40900;52.710;6.438;2023-03-01T05:02:49;26.73;;;21.38;;
55003;SDS011;40900;52.710;6.438;2023-03-01T05:05:28;25.60;;;20.33;;
55003;SDS011;40900;52.710;6.438;2023-03-01T05:07:57;25.52;;;20.70;;
55003;SDS011;40900;52.710;6.438;2023-03-01T05:10:26;25.25;;;21.27;;
55003;SDS011;40900;52.710;6.438;2023-03-01T05:12:54;23.45;;;20.27;;
55003;SDS011;40900;52.710;6.438;2023-03-01T05:15:22;24.70;;;20.15;;
55003;SDS011;40900;52.710;6.438;2023-03-01T05:17:50;23.20;;;19.63;;
55003;SDS011;40900;52.710;6.438;2023-03-01T05:20:17;28.90;;;21.33;;
55003;SDS011;40900;52.710;6.438;2023-03-01T05:22:43;24.25;;;20.45;;
55003;SDS011;40900;52.710;6.438;2023-03-01T05:25:09;25.73;;;20.83;;
55003;SDS011;40900;52.710;6.438;2023-03-01T05:27:35;22.13;;;19.60;;
55003;SDS011;40900;52.710;6.438;2023-03-01T05:30:01;24.80;;;20.65;;
55003;SDS011;40900;52.710;6.438;2023-03-01T05:32:39;27.45;;;22.38;;
55003;SDS011;40900;52.710;6.438;2023-03-01T05:35:09;25.00;;;20.60;;
55003;SDS011;40900;52.710;6.438;2023-03-01T05:37:39;26.15;;;21.40;;
55003;SDS011;40900;52.710;6.438;2023-03-01T05:40:08;26.13;;;21.50;;
55003;SDS011;40900;52.710;6.438;2023-03-01T05:42:51;25.98;;;21.95;;
55003;SDS011;40900;52.710;6.438;2023-03-01T05:45:21;27.58;;;20.30;;
55003;SDS011;40900;52.710;6.438;2023-03-01T05:47:49;25.08;;;20.35;;
55003;SDS011;40900;52.710;6.438;2023-03-01T05:50:19;25.17;;;20.70;;
55003;SDS011;40900;52.710;6.438;2023-03-01T05:52:47;22.92;;;19.33;;
55003;SDS011;40900;52.710;6.438;2023-03-01T05:55:23;23.58;;;19.15;;
55003;SDS011;40900;52.710;6.438;2023-03-01T05:57:49;22.70;;;19.20;;
55003;SDS011;40900;52.710;6.438;2023-03-01T06:00:17;25.50;;;20.98;;
55003;SDS011;40900;52.710;6.438;2023-03-01T06:02:44;23.95;;;19.75;;
55003;SDS011;40900;52.710;6.438;2023-03-01T06:05:11;26.52;;;20.30;;
55003;SDS011;40900;52.710;6.438;2023-03-01T06:07:38;24.67;;;20.25;;
55003;SDS011;40900;52.710;6.438;2023-03-01T06:10:04;27.80;;;20.83;;
55003;SDS011;40900;52.710;6.438;2023-03-01T06:12:32;24.83;;;21.02;;
55003;SDS011;40900;52.710;6.438;2023-03-01T06:14:58;27.23;;;20.90;;
55003;SDS011;40900;52.710;6.438;2023-03-01T06:17:24;27.20;;;20.60;;
55003;SDS011;40900;52.710;6.438;2023-03-01T06:19:50;24.35;;;19.83;;
55003;SDS011;40900;52.710;6.438;2023-03-01T06:22:16;26.23;;;21.05;;
55003;SDS011;40900;52.710;6.438;2023-03-01T06:24:42;25.42;;;20.13;;
55003;SDS011;40900;52.710;6.438;2023-03-01T06:27:07;25.52;;;21.10;;
55003;SDS011;40900;52.710;6.438;2023-03-01T06:29:33;24.17;;;20.50;;
55003;SDS011;40900;52.710;6.438;2023-03-01T06:31:59;25.15;;;20.20;;
55003;SDS011;40900;52.710;6.438;2023-03-01T06:34:24;25.63;;;20.63;;
55003;SDS011;40900;52.710;6.438;2023-03-01T06:36:50;25.98;;;21.45;;
55003;SDS011;40900;52.710;6.438;2023-03-01T06:39:16;25.35;;;20.98;;
55003;SDS011;40900;52.710;6.438;2023-03-01T06:41:43;26.67;;;21.45;;
55003;SDS011;40900;52.710;6.438;2023-03-01T06:44:09;25.50;;;21.58;;
55003;SDS011;40900;52.710;6.438;2023-03-01T06:46:34;28.45;;;21.73;;
55003;SDS011;40900;52.710;6.438;2023-03-01T06:49:00;29.08;;;22.85;;
55003;SDS011;40900;52.710;6.438;2023-03-01T06:51:26;29.92;;;21.77;;
55003;SDS011;40900;52.710;6.438;2023-03-01T06:53:51;29.92;;;22.67;;
55003;SDS011;40900;52.710;6.438;2023-03-01T06:56:17;28.40;;;21.85;;
55003;SDS011;40900;52.710;6.438;2023-03-01T06:58:43;28.67;;;22.90;;
55003;SDS011;40900;52.710;6.438;2023-03-01T07:01:08;32.90;;;22.90;;
55003;SDS011;40900;52.710;6.438;2023-03-01T07:03:34;33.85;;;24.67;;
55003;SDS011;40900;52.710;6.438;2023-03-01T07:06:00;31.92;;;23.05;;
55003;SDS011;40900;52.710;6.438;2023-03-01T07:08:26;28.70;;;22.30;;
55003;SDS011;40900;52.710;6.438;2023-03-01T07:10:58;32.67;;;23.85;;
55003;SDS011;40900;52.710;6.438;2023-03-01T07:13:24;28.23;;;23.83;;
55003;SDS011;40900;52.710;6.438;2023-03-01T07:15:50;32.15;;;24.73;;
55003;SDS011;40900;52.710;6.438;2023-03-01T07:18:15;32.53;;;24.67;;
55003;SDS011;40900;52.710;6.438;2023-03-01T07:20:41;32.25;;;23.73;;
55003;SDS011;40900;52.710;6.438;2023-03-01T07:23:07;32.85;;;23.27;;
55003;SDS011;40900;52.710;6.438;2023-03-01T07:25:33;31.88;;;23.65;;
55003;SDS011;40900;52.710;6.438;2023-03-01T07:27:59;28.75;;;23.27;;
55003;SDS011;40900;52.710;6.438;2023-03-01T07:30:25;30.17;;;23.63;;
55003;SDS011;40900;52.710;6.438;2023-03-01T07:32:53;37.85;;;25.90;;
55003;SDS011;40900;52.710;6.438;2023-03-01T07:35:20;36.70;;;26.83;;
55003;SDS011;40900;52.710;6.438;2023-03-01T07:37:46;35.83;;;27.15;;
55003;SDS011;40900;52.710;6.438;2023-03-01T07:40:12;33.33;;;25.45;;
55003;SDS011;40900;52.710;6.438;2023-03-01T07:42:38;33.88;;;24.70;;
55003;SDS011;40900;52.710;6.438;2023-03-01T07:45:05;34.08;;;24.13;;
55003;SDS011;40900;52.710;6.438;2023-03-01T07:47:31;32.17;;;25.05;;
55003;SDS011;40900;52.710;6.438;2023-03-01T07:49:57;34.60;;;25.30;;
55003;SDS011;40900;52.710;6.438;2023-03-01T07:52:23;35.95;;;23.73;;
55003;SDS011;40900;52.710;6.438;2023-03-01T07:54:49;30.58;;;21.90;;
55003;SDS011;40900;52.710;6.438;2023-03-01T07:57:14;28.80;;;22.08;;
55003;SDS011;40900;52.710;6.438;2023-03-01T07:59:40;28.67;;;22.83;;
55003;SDS011;40900;52.710;6.438;2023-03-01T08:02:06;24.75;;;21.20;;
55003;SDS011;40900;52.710;6.438;2023-03-01T08:04:33;25.08;;;20.95;;
55003;SDS011;40900;52.710;6.438;2023-03-01T08:06:58;22.98;;;19.80;;
55003;SDS011;40900;52.710;6.438;2023-03-01T08:09:24;23.38;;;19.75;;
55003;SDS011;40900;52.710;6.438;2023-03-01T08:11:50;24.83;;;19.55;;
55003;SDS011;40900;52.710;6.438;2023-03-01T08:14:16;26.75;;;19.27;;
55003;SDS011;40900;52.710;6.438;2023-03-01T08:16:42;25.20;;;18.58;;
55003;SDS011;40900;52.710;6.438;2023-03-01T08:19:08;22.67;;;18.95;;
55003;SDS011;40900;52.710;6.438;2023-03-01T08:21:36;22.05;;;17.05;;
55003;SDS011;40900;52.710;6.438;2023-03-01T08:24:03;21.90;;;17.58;;
55003;SDS011;40900;52.710;6.438;2023-03-01T08:26:31;22.30;;;17.75;;
55003;SDS011;40900;52.710;6.438;2023-03-01T08:28:57;23.52;;;19.23;;
55003;SDS011;40900;52.710;6.438;2023-03-01T08:34:05;26.75;;;19.00;;
55003;SDS011;40900;52.710;6.438;2023-03-01T08:36:35;25.63;;;18.92;;
55003;SDS011;40900;52.710;6.438;2023-03-01T08:39:03;23.60;;;19.23;;
55003;SDS011;40900;52.710;6.438;2023-03-01T08:41:30;21.85;;;17.75;;
55003;SDS011;40900;52.710;6.438;2023-03-01T08:43:56;20.05;;;16.90;;
55003;SDS011;40900;52.710;6.438;2023-03-01T08:46:28;19.50;;;15.63;;
55003;SDS011;40900;52.710;6.438;2023-03-01T08:48:55;22.05;;;16.58;;
55003;SDS011;40900;52.710;6.438;2023-03-01T08:51:22;20.48;;;15.30;;
55003;SDS011;40900;52.710;6.438;2023-03-01T08:53:48;19.33;;;15.60;;
55003;SDS011;40900;52.710;6.438;2023-03-01T08:56:15;19.95;;;14.63;;
55003;SDS011;40900;52.710;6.438;2023-03-01T08:58:47;19.38;;;14.57;;
55003;SDS011;40900;52.710;6.438;2023-03-01T09:01:14;19.98;;;14.35;;
55003;SDS011;40900;52.710;6.438;2023-03-01T09:03:42;15.35;;;12.30;;
55003;SDS011;40900;52.710;6.438;2023-03-01T09:06:09;15.20;;;11.75;;
55003;SDS011;40900;52.710;6.438;2023-03-01T09:08:35;14.20;;;11.18;;
55003;SDS011;40900;52.710;6.438;2023-03-01T09:11:03;13.00;;;10.10;;
55003;SDS011;40900;52.710;6.438;2023-03-01T09:13:30;14.35;;;10.10;;
55003;SDS011;40900;52.710;6.438;2023-03-01T09:15:56;12.32;;;8.98;;
55003;SDS011;40900;52.710;6.438;2023-03-01T09:18:23;11.75;;;9.07;;
55003;SDS011;40900;52.710;6.438;2023-03-01T09:20:49;14.57;;;8.90;;
55003;SDS011;40900;52.710;6.438;2023-03-01T09:23:14;12.60;;;8.85;;
55003;SDS011;40900;52.710;6.438;2023-03-01T09:25:40;13.63;;;9.30;;
55003;SDS011;40900;52.710;6.438;2023-03-01T09:28:06;10.43;;;8.30;;
55003;SDS011;40900;52.710;6.438;2023-03-01T09:30:32;10.55;;;6.45;;
55003;SDS011;40900;52.710;6.438;2023-03-01T09:32:57;9.55;;;6.53;;
55003;SDS011;40900;52.710;6.438;2023-03-01T09:35:23;7.43;;;5.95;;
55003;SDS011;40900;52.710;6.438;2023-03-01T09:37:49;6.93;;;5.07;;
55003;SDS011;40900;52.710;6.438;2023-03-01T09:40:19;7.82;;;5.28;;
55003;SDS011;40900;52.710;6.438;2023-03-01T09:42:52;8.13;;;5.68;;
55003;SDS011;40900;52.710;6.438;2023-03-01T09:48:02;7.90;;;5.40;;
55003;SDS011;40900;52.710;6.438;2023-03-01T09:50:32;6.45;;;4.75;;
55003;SDS011;40900;52.710;6.438;2023-03-01T10:00:53;7.00;;;4.80;;
55003;SDS011;40900;52.710;6.438;2023-03-01T10:03:34;7.25;;;4.75;;
55003;SDS011;40900;52.710;6.438;2023-03-01T10:06:23;8.63;;;4.63;;
55003;SDS011;40900;52.710;6.438;2023-03-01T10:09:34;7.13;;;4.93;;
55003;SDS011;40900;52.710;6.438;2023-03-01T10:11:50;4.63;;;3.78;;
55003;SDS011;40900;52.710;6.438;2023-03-01T10:17:44;5.80;;;3.90;;
55003;SDS011;40900;52.710;6.438;2023-03-01T10:20:21;6.10;;;4.38;;
55003;SDS011;40900;52.710;6.438;2023-03-01T10:23:01;6.38;;;3.88;;
55003;SDS011;40900;52.710;6.438;2023-03-01T10:25:42;5.40;;;3.80;;
55003;SDS011;40900;52.710;6.438;2023-03-01T10:28:20;7.53;;;4.40;;
55003;SDS011;40900;52.710;6.438;2023-03-01T10:30:53;5.55;;;4.38;;
55003;SDS011;40900;52.710;6.438;2023-03-01T10:33:37;7.88;;;5.13;;
55003;SDS011;40900;52.710;6.438;2023-03-01T10:36:07;6.05;;;4.35;;
55003;SDS011;40900;52.710;6.438;2023-03-01T10:38:46;6.75;;;5.00;;
55003;SDS011;40900;52.710;6.438;2023-03-01T10:41:20;5.00;;;4.05;;
55003;SDS011;40900;52.710;6.438;2023-03-01T10:43:54;6.18;;;4.00;;
55003;SDS011;40900;52.710;6.438;2023-03-01T10:49:06;6.72;;;4.20;;
55003;SDS011;40900;52.710;6.438;2023-03-01T10:51:32;7.07;;;4.43;;
55003;SDS011;40900;52.710;6.438;2023-03-01T10:53:58;6.57;;;4.72;;
55003;SDS011;40900;52.710;6.438;2023-03-01T10:56:24;6.90;;;4.78;;
55003;SDS011;40900;52.710;6.438;2023-03-01T10:58:57;6.72;;;4.32;;
55003;SDS011;40900;52.710;6.438;2023-03-01T11:06:32;6.55;;;4.20;;
55003;SDS011;40900;52.710;6.438;2023-03-01T11:09:18;5.65;;;4.32;;
55003;SDS011;40900;52.710;6.438;2023-03-01T11:11:46;6.13;;;4.30;;
55003;SDS011;40900;52.710;6.438;2023-03-01T11:14:21;6.45;;;4.50;;
55003;SDS011;40900;52.710;6.438;2023-03-01T11:17:12;7.07;;;4.70;;
55003;SDS011;40900;52.710;6.438;2023-03-01T11:20:09;6.10;;;5.20;;
55003;SDS011;40900;52.710;6.438;2023-03-01T11:22:53;7.10;;;5.10;;
55003;SDS011;40900;52.710;6.438;2023-03-01T11:25:24;10.45;;;5.72;;
55003;SDS011;40900;52.710;6.438;2023-03-01T11:28:16;7.90;;;5.60;;
55003;SDS011;40900;52.710;6.438;2023-03-01T11:31:00;6.72;;;5.68;;
55003;SDS011;40900;52.710;6.438;2023-03-01T11:33:42;6.78;;;5.45;;
55003;SDS011;40900;52.710;6.438;2023-03-01T11:36:35;6.68;;;5.18;;
55003;SDS011;40900;52.710;6.438;2023-03-01T11:45:10;8.07;;;5.82;;
55003;SDS011;40900;52.710;6.438;2023-03-01T11:47:41;8.32;;;5.55;;
55003;SDS011;40900;52.710;6.438;2023-03-01T11:50:18;7.57;;;6.40;;
55003;SDS011;40900;52.710;6.438;2023-03-01T12:01:22;10.95;;;6.28;;
55003;SDS011;40900;52.710;6.438;2023-03-01T12:04:09;9.95;;;6.10;;
55003;SDS011;40900;52.710;6.438;2023-03-01T12:07:12;7.72;;;5.97;;
55003;SDS011;40900;52.710;6.438;2023-03-01T12:12:58;8.18;;;5.82;;
55003;SDS011;40900;52.710;6.438;2023-03-01T12:15:51;7.80;;;5.55;;
55003;SDS011;40900;52.710;6.438;2023-03-01T12:50:54;8.20;;;6.28;;
55003;SDS011;40900;52.710;6.438;2023-03-01T12:53:29;11.07;;;7.07;;
55003;SDS011;40900;52.710;6.438;2023-03-01T12:56:06;9.38;;;6.82;;
55003;SDS011;40900;52.710;6.438;2023-03-01T12:58:57;8.63;;;6.65;;
55003;SDS011;40900;52.710;6.438;2023-03-01T13:09:50;9.43;;;6.53;;
55003;SDS011;40900;52.710;6.438;2023-03-01T13:12:52;8.15;;;5.97;;
55003;SDS011;40900;52.710;6.438;2023-03-01T13:17:48;7.38;;;5.80;;
55003;SDS011;40900;52.710;6.438;2023-03-01T13:20:15;7.78;;;5.80;;
55003;SDS011;40900;52.710;6.438;2023-03-01T13:22:42;9.90;;;6.20;;
55003;SDS011;40900;52.710;6.438;2023-03-01T13:25:14;8.93;;;6.10;;
55003;SDS011;40900;52.710;6.438;2023-03-01T13:27:45;7.60;;;6.07;;
55003;SDS011;40900;52.710;6.438;2023-03-01T13:35:56;7.72;;;5.88;;
55003;SDS011;40900;52.710;6.438;2023-03-01T13:38:44;11.40;;;7.18;;
55003;SDS011;40900;52.710;6.438;2023-03-01T13:41:11;11.15;;;6.78;;
55003;SDS011;40900;52.710;6.438;2023-03-01T13:43:39;8.43;;;6.32;;
55003;SDS011;40900;52.710;6.438;2023-03-01T13:46:11;9.45;;;7.15;;
55003;SDS011;40900;52.710;6.438;2023-03-01T13:48:55;10.88;;;6.80;;
55003;SDS011;40900;52.710;6.438;2023-03-01T13:51:26;9.55;;;6.30;;
55003;SDS011;40900;52.710;6.438;2023-03-01T13:53:53;10.00;;;6.63;;
55003;SDS011;40900;52.710;6.438;2023-03-01T13:56:24;8.27;;;6.45;;
55003;SDS011;40900;52.710;6.438;2023-03-01T13:58:52;11.07;;;7.15;;
55003;SDS011;40900;52.710;6.438;2023-03-01T14:03:54;9.68;;;7.25;;
55003;SDS011;40900;52.710;6.438;2023-03-01T14:06:31;10.40;;;6.97;;
55003;SDS011;40900;52.710;6.438;2023-03-01T14:09:05;7.38;;;6.47;;
55003;SDS011;40900;52.710;6.438;2023-03-01T14:14:56;12.05;;;7.10;;
55003;SDS011;40900;52.710;6.438;2023-03-01T14:23:01;11.65;;;6.90;;
55003;SDS011;40900;52.710;6.438;2023-03-01T14:25:34;10.15;;;7.30;;
55003;SDS011;40900;52.710;6.438;2023-03-01T14:31:02;9.68;;;6.75;;
55003;SDS011;40900;52.710;6.438;2023-03-01T14:33:54;9.20;;;6.93;;
55003;SDS011;40900;52.710;6.438;2023-03-01T14:36:25;9.13;;;7.25;;
55003;SDS011;40900;52.710;6.438;2023-03-01T14:38:52;13.77;;;7.07;;
55003;SDS011;40900;52.710;6.438;2023-03-01T14:41:23;11.48;;;7.47;;
55003;SDS011;40900;52.710;6.438;2023-03-01T14:43:58;9.02;;;6.43;;
55003;SDS011;40900;52.710;6.438;2023-03-01T14:46:32;7.95;;;6.43;;
55003;SDS011;40900;52.710;6.438;2023-03-01T14:49:03;10.63;;;7.72;;
55003;SDS011;40900;52.710;6.438;2023-03-01T14:51:42;13.32;;;8.15;;
55003;SDS011;40900;52.710;6.438;2023-03-01T14:54:25;11.65;;;7.97;;
55003;SDS011;40900;52.710;6.438;2023-03-01T14:56:54;10.38;;;7.65;;
55003;SDS011;40900;52.710;6.438;2023-03-01T14:59:23;12.70;;;8.55;;
55003;SDS011;40900;52.710;6.438;2023-03-01T15:01:50;11.65;;;8.55;;
55003;SDS011;40900;52.710;6.438;2023-03-01T15:04:18;13.32;;;8.82;;
55003;SDS011;40900;52.710;6.438;2023-03-01T15:06:44;12.50;;;8.77;;
55003;SDS011;40900;52.710;6.438;2023-03-01T15:09:14;11.80;;;8.88;;
55003;SDS011;40900;52.710;6.438;2023-03-01T15:11:41;15.75;;;8.93;;
55003;SDS011;40900;52.710;6.438;2023-03-01T15:14:28;13.05;;;9.55;;
55003;SDS011;40900;52.710;6.438;2023-03-01T15:17:15;19.13;;;9.75;;
55003;SDS011;40900;52.710;6.438;2023-03-01T15:20:15;16.17;;;10.98;;
55003;SDS011;40900;52.710;6.438;2023-03-01T15:22:43;13.20;;;9.55;;
55003;SDS011;40900;52.710;6.438;2023-03-01T15:25:23;14.35;;;9.70;;
55003;SDS011;40900;52.710;6.438;2023-03-01T15:27:52;14.13;;;9.35;;
55003;SDS011;40900;52.710;6.438;2023-03-01T15:30:23;14.10;;;9.30;;
55003;SDS011;40900;52.710;6.438;2023-03-01T15:36:00;14.18;;;10.43;;
55003;SDS011;40900;52.710;6.438;2023-03-01T15:38:32;13.98;;;10.35;;
55003;SDS011;40900;52.710;6.438;2023-03-01T15:41:03;12.37;;;9.97;;
55003;SDS011;40900;52.710;6.438;2023-03-01T15:43:38;19.00;;;10.45;;
55003;SDS011;40900;52.710;6.438;2023-03-01T15:49:26;17.17;;;10.03;;
55003;SDS011;40900;52.710;6.438;2023-03-01T15:52:19;12.98;;;9.73;;
55003;SDS011;40900;52.710;6.438;2023-03-01T15:54:56;14.80;;;10.13;;
55003;SDS011;40900;52.710;6.438;2023-03-01T15:57:27;13.77;;;10.15;;
55003;SDS011;40900;52.710;6.438;2023-03-01T15:59:53;13.75;;;10.75;;
55003;SDS011;40900;52.710;6.438;2023-03-01T16:02:19;14.45;;;9.82;;
55003;SDS011;40900;52.710;6.438;2023-03-01T16:04:46;14.07;;;9.73;;
55003;SDS011;40900;52.710;6.438;2023-03-01T16:07:14;13.43;;;9.93;;
55003;SDS011;40900;52.710;6.438;2023-03-01T16:09:40;13.23;;;9.93;;
55003;SDS011;40900;52.710;6.438;2023-03-01T16:12:15;10.75;;;9.27;;
55003;SDS011;40900;52.710;6.438;2023-03-01T16:14:42;13.68;;;10.32;;
55003;SDS011;40900;52.710;6.438;2023-03-01T16:17:08;14.30;;;10.13;;
55003;SDS011;40900;52.710;6.438;2023-03-01T16:19:35;15.75;;;10.32;;
55003;SDS011;40900;52.710;6.438;2023-03-01T16:22:02;12.18;;;9.65;;
55003;SDS011;40900;52.710;6.438;2023-03-01T16:24:28;12.98;;;9.35;;
55003;SDS011;40900;52.710;6.438;2023-03-01T16:26:54;13.65;;;9.45;;
55003;SDS011;40900;52.710;6.438;2023-03-01T16:29:19;12.70;;;9.43;;
55003;SDS011;40900;52.710;6.438;2023-03-01T16:31:45;14.38;;;9.77;;
55003;SDS011;40900;52.710;6.438;2023-03-01T16:34:11;15.27;;;10.55;;
55003;SDS011;40900;52.710;6.438;2023-03-01T16:36:37;12.20;;;9.38;;
55003;SDS011;40900;52.710;6.438;2023-03-01T16:39:03;13.30;;;10.00;;
55003;SDS011;40900;52.710;6.438;2023-03-01T16:41:30;13.63;;;9.75;;
55003;SDS011;40900;52.710;6.438;2023-03-01T16:43:56;12.63;;;10.40;;
55003;SDS011;40900;52.710;6.438;2023-03-01T16:46:23;13.07;;;10.35;;
55003;SDS011;40900;52.710;6.438;2023-03-01T16:48:50;15.00;;;11.00;;
55003;SDS011;40900;52.710;6.438;2023-03-01T16:51:17;14.45;;;10.98;;